sensor_id;sensor_type;location;lat;lon;timestamp;P1;durP1;ratioP1;P2;durP2;ratioP2
49710;SDS011;35602;44.534;18.696;2023-05-10T00:04:11;22.58;;;20.10;;
49710;SDS011;35602;44.534;18.696;2023-05-10T00:09:11;21.65;;;18.67;;
49710;SDS011;35602;44.534;18.696;2023-05-10T00:14:12;24.17;;;19.67;;
49710;SDS011;35602;44.534;18.696;2023-05-10T00:19:13;21.12;;;18.50;;
49710;SDS011;35602;44.534;18.696;2023-05-10T00:24:14;23.02;;;20.52;;
49710;SDS011;35602;44.534;18.696;2023-05-10T00:29:15;21.70;;;19.23;;
49710;SDS011;35602;44.534;18.696;2023-05-10T00:34:16;21.60;;;18.50;;
49710;SDS011;35602;44.534;18.696;2023-05-10T00:39:16;21.95;;;18.27;;
49710;SDS011;35602;44.534;18.696;2023-05-10T00:44:17;20.25;;;18.00;;
49710;SDS011;35602;44.534;18.696;2023-05-10T00:49:18;21.73;;;18.10;;
49710;SDS011;35602;44.534;18.696;2023-05-10T00:54:20;20.90;;;18.00;;
49710;SDS011;35602;44.534;18.696;2023-05-10T00:59:21;21.70;;;18.55;;
49710;SDS011;35602;44.534;18.696;2023-05-10T01:04:24;19.35;;;17.23;;
49710;SDS011;35602;44.534;18.696;2023-05-10T01:09:28;19.85;;;17.33;;
49710;SDS011;35602;44.534;18.696;2023-05-10T01:14:29;19.00;;;16.65;;
49710;SDS011;35602;44.534;18.696;2023-05-10T01:19:30;19.48;;;17.20;;
49710;SDS011;35602;44.534;18.696;2023-05-10T01:24:40;19.48;;;17.37;;
49710;SDS011;35602;44.534;18.696;2023-05-10T01:31:08;18.08;;;16.20;;
49710;SDS011;35602;44.534;18.696;2023-05-10T01:37:46;19.00;;;16.90;;
49710;SDS011;35602;44.534;18.696;2023-05-10T01:43:26;20.55;;;17.37;;
49710;SDS011;35602;44.534;18.696;2023-05-10T01:48:33;18.85;;;16.85;;
49710;SDS011;35602;44.534;18.696;2023-05-10T01:53:34;17.85;;;15.95;;
49710;SDS011;35602;44.534;18.696;2023-05-10T01:58:38;17.55;;;15.70;;
49710;SDS011;35602;44.534;18.696;2023-05-10T02:03:45;18.12;;;15.57;;
49710;SDS011;35602;44.534;18.696;2023-05-10T02:08:50;17.98;;;16.08;;
49710;SDS011;35602;44.534;18.696;2023-05-10T02:13:53;17.62;;;15.77;;
49710;SDS011;35602;44.534;18.696;2023-05-10T02:18:56;17.00;;;15.20;;
49710;SDS011;35602;44.534;18.696;2023-05-10T02:23:59;16.92;;;15.07;;
49710;SDS011;35602;44.534;18.696;2023-05-10T02:29:02;17.45;;;15.48;;
49710;SDS011;35602;44.534;18.696;2023-05-10T02:34:05;17.40;;;15.52;;
49710;SDS011;35602;44.534;18.696;2023-05-10T02:39:08;18.08;;;15.23;;
49710;SDS011;35602;44.534;18.696;2023-05-10T02:44:12;17.05;;;14.90;;
49710;SDS011;35602;44.534;18.696;2023-05-10T02:49:15;17.55;;;15.20;;
49710;SDS011;35602;44.534;18.696;2023-05-10T02:54:20;16.00;;;14.30;;
49710;SDS011;35602;44.534;18.696;2023-05-10T02:59:27;16.37;;;14.57;;
49710;SDS011;35602;44.534;18.696;2023-05-10T03:04:28;16.55;;;14.73;;
49710;SDS011;35602;44.534;18.696;2023-05-10T03:09:29;16.23;;;14.52;;
49710;SDS011;35602;44.534;18.696;2023-05-10T03:14:41;15.85;;;14.20;;
49710;SDS011;35602;44.534;18.696;2023-05-10T03:19:57;15.82;;;14.18;;
49710;SDS011;35602;44.534;18.696;2023-05-10T03:25:04;15.50;;;13.82;;
49710;SDS011;35602;44.534;18.696;2023-05-10T03:30:08;15.02;;;13.40;;
49710;SDS011;35602;44.534;18.696;2023-05-10T03:35:12;16.15;;;13.18;;
49710;SDS011;35602;44.534;18.696;2023-05-10T03:40:14;15.93;;;13.32;;
49710;SDS011;35602;44.534;18.696;2023-05-10T03:45:15;15.68;;;14.07;;
49710;SDS011;35602;44.534;18.696;2023-05-10T03:50:16;14.70;;;13.07;;
49710;SDS011;35602;44.534;18.696;2023-05-10T03:55:18;14.32;;;12.82;;
49710;SDS011;35602;44.534;18.696;2023-05-10T04:00:19;15.15;;;13.55;;
49710;SDS011;35602;44.534;18.696;2023-05-10T04:05:20;14.10;;;12.60;;
49710;SDS011;35602;44.534;18.696;2023-05-10T04:10:21;15.02;;;13.10;;
49710;SDS011;35602;44.534;18.696;2023-05-10T04:15:22;13.43;;;12.02;;
49710;SDS011;35602;44.534;18.696;2023-05-10T04:20:23;13.27;;;11.90;;
49710;SDS011;35602;44.534;18.696;2023-05-10T04:25:24;14.23;;;12.65;;
49710;SDS011;35602;44.534;18.696;2023-05-10T04:30:24;13.23;;;11.75;;
49710;SDS011;35602;44.534;18.696;2023-05-10T04:35:25;13.48;;;12.13;;
49710;SDS011;35602;44.534;18.696;2023-05-10T04:40:27;13.25;;;11.95;;
49710;SDS011;35602;44.534;18.696;2023-05-10T04:45:27;13.02;;;11.65;;
49710;SDS011;35602;44.534;18.696;2023-05-10T04:50:28;13.02;;;11.73;;
49710;SDS011;35602;44.534;18.696;2023-05-10T04:55:29;13.62;;;11.38;;
49710;SDS011;35602;44.534;18.696;2023-05-10T05:00:32;12.77;;;11.48;;
49710;SDS011;35602;44.534;18.696;2023-05-10T05:05:33;12.77;;;11.40;;
49710;SDS011;35602;44.534;18.696;2023-05-10T05:10:34;12.98;;;11.55;;
49710;SDS011;35602;44.534;18.696;2023-05-10T05:15:35;12.35;;;11.05;;
49710;SDS011;35602;44.534;18.696;2023-05-10T05:20:39;11.73;;;10.52;;
49710;SDS011;35602;44.534;18.696;2023-05-10T05:25:40;12.00;;;10.77;;
49710;SDS011;35602;44.534;18.696;2023-05-10T05:30:42;12.43;;;11.05;;
49710;SDS011;35602;44.534;18.696;2023-05-10T05:35:42;13.27;;;11.70;;
49710;SDS011;35602;44.534;18.696;2023-05-10T05:40:47;12.68;;;11.38;;
49710;SDS011;35602;44.534;18.696;2023-05-10T05:45:48;11.98;;;10.65;;
49710;SDS011;35602;44.534;18.696;2023-05-10T05:50:49;12.25;;;10.95;;
49710;SDS011;35602;44.534;18.696;2023-05-10T05:55:54;13.90;;;11.73;;
49710;SDS011;35602;44.534;18.696;2023-05-10T06:00:56;12.00;;;10.70;;
49710;SDS011;35602;44.534;18.696;2023-05-10T06:05:57;12.52;;;11.23;;
49710;SDS011;35602;44.534;18.696;2023-05-10T06:10:58;13.13;;;10.95;;
49710;SDS011;35602;44.534;18.696;2023-05-10T06:15:59;13.25;;;11.25;;
49710;SDS011;35602;44.534;18.696;2023-05-10T06:21:00;12.90;;;11.43;;
49710;SDS011;35602;44.534;18.696;2023-05-10T06:26:01;12.85;;;11.52;;
49710;SDS011;35602;44.534;18.696;2023-05-10T06:31:02;14.15;;;12.15;;
49710;SDS011;35602;44.534;18.696;2023-05-10T06:36:03;13.25;;;11.98;;
49710;SDS011;35602;44.534;18.696;2023-05-10T06:41:04;13.07;;;11.75;;
49710;SDS011;35602;44.534;18.696;2023-05-10T06:46:05;14.48;;;12.35;;
49710;SDS011;35602;44.534;18.696;2023-05-10T06:51:07;13.20;;;11.80;;
49710;SDS011;35602;44.534;18.696;2023-05-10T06:56:07;15.18;;;12.48;;
49710;SDS011;35602;44.534;18.696;2023-05-10T07:01:08;13.85;;;12.15;;
49710;SDS011;35602;44.534;18.696;2023-05-10T07:06:09;13.85;;;12.45;;
49710;SDS011;35602;44.534;18.696;2023-05-10T07:11:10;14.85;;;13.00;;
49710;SDS011;35602;44.534;18.696;2023-05-10T07:16:11;13.02;;;11.60;;
49710;SDS011;35602;44.534;18.696;2023-05-10T07:21:12;13.40;;;12.05;;
49710;SDS011;35602;44.534;18.696;2023-05-10T07:26:13;14.13;;;12.70;;
49710;SDS011;35602;44.534;18.696;2023-05-10T07:31:14;13.93;;;12.43;;
49710;SDS011;35602;44.534;18.696;2023-05-10T07:36:15;14.38;;;12.65;;
49710;SDS011;35602;44.534;18.696;2023-05-10T07:41:16;15.20;;;12.30;;
49710;SDS011;35602;44.534;18.696;2023-05-10T07:46:17;14.30;;;12.50;;
49710;SDS011;35602;44.534;18.696;2023-05-10T07:51:19;13.68;;;11.63;;
49710;SDS011;35602;44.534;18.696;2023-05-10T08:01:32;13.62;;;11.75;;
49710;SDS011;35602;44.534;18.696;2023-05-10T08:06:34;14.55;;;11.77;;
49710;SDS011;35602;44.534;18.696;2023-05-10T08:11:34;14.57;;;12.15;;
49710;SDS011;35602;44.534;18.696;2023-05-10T08:16:35;14.18;;;11.45;;
49710;SDS011;35602;44.534;18.696;2023-05-10T08:21:36;14.75;;;12.55;;
49710;SDS011;35602;44.534;18.696;2023-05-10T08:26:37;14.40;;;12.37;;
49710;SDS011;35602;44.534;18.696;2023-05-10T08:31:38;13.62;;;12.20;;
49710;SDS011;35602;44.534;18.696;2023-05-10T08:36:39;14.50;;;12.63;;
49710;SDS011;35602;44.534;18.696;2023-05-10T08:41:40;14.55;;;12.63;;
49710;SDS011;35602;44.534;18.696;2023-05-10T08:46:45;16.30;;;12.77;;
49710;SDS011;35602;44.534;18.696;2023-05-10T08:51:54;14.10;;;12.65;;
49710;SDS011;35602;44.534;18.696;2023-05-10T08:56:57;16.35;;;13.45;;
49710;SDS011;35602;44.534;18.696;2023-05-10T09:01:58;15.88;;;13.43;;
49710;SDS011;35602;44.534;18.696;2023-05-10T09:07:00;15.50;;;12.98;;
49710;SDS011;35602;44.534;18.696;2023-05-10T09:12:01;16.90;;;14.57;;
49710;SDS011;35602;44.534;18.696;2023-05-10T09:17:02;15.75;;;13.70;;
49710;SDS011;35602;44.534;18.696;2023-05-10T09:22:03;16.77;;;13.80;;
49710;SDS011;35602;44.534;18.696;2023-05-10T09:27:04;19.12;;;14.10;;
49710;SDS011;35602;44.534;18.696;2023-05-10T09:32:05;16.87;;;14.20;;
49710;SDS011;35602;44.534;18.696;2023-05-10T09:37:06;19.08;;;14.38;;
49710;SDS011;35602;44.534;18.696;2023-05-10T09:42:08;16.67;;;13.75;;
49710;SDS011;35602;44.534;18.696;2023-05-10T09:47:10;19.83;;;14.40;;
49710;SDS011;35602;44.534;18.696;2023-05-10T09:52:20;21.95;;;14.63;;
49710;SDS011;35602;44.534;18.696;2023-05-10T09:57:21;20.95;;;14.45;;
49710;SDS011;35602;44.534;18.696;2023-05-10T10:02:28;18.48;;;14.40;;
49710;SDS011;35602;44.534;18.696;2023-05-10T10:07:29;20.12;;;15.07;;
49710;SDS011;35602;44.534;18.696;2023-05-10T10:12:30;20.48;;;14.52;;
49710;SDS011;35602;44.534;18.696;2023-05-10T10:17:31;20.02;;;14.40;;
49710;SDS011;35602;44.534;18.696;2023-05-10T10:22:36;19.62;;;14.18;;
49710;SDS011;35602;44.534;18.696;2023-05-10T10:27:59;19.70;;;15.05;;
49710;SDS011;35602;44.534;18.696;2023-05-10T10:44:38;17.02;;;13.90;;
49710;SDS011;35602;44.534;18.696;2023-05-10T10:49:43;17.92;;;14.50;;
49710;SDS011;35602;44.534;18.696;2023-05-10T10:56:36;17.20;;;13.98;;
49710;SDS011;35602;44.534;18.696;2023-05-10T11:01:37;19.73;;;14.77;;
49710;SDS011;35602;44.534;18.696;2023-05-10T11:06:45;18.12;;;14.68;;
49710;SDS011;35602;44.534;18.696;2023-05-10T11:11:50;16.30;;;14.13;;
49710;SDS011;35602;44.534;18.696;2023-05-10T11:16:55;19.77;;;14.98;;
49710;SDS011;35602;44.534;18.696;2023-05-10T11:27:57;16.70;;;14.20;;
49710;SDS011;35602;44.534;18.696;2023-05-10T11:32:57;16.90;;;14.27;;
49710;SDS011;35602;44.534;18.696;2023-05-10T11:37:58;19.65;;;14.75;;
49710;SDS011;35602;44.534;18.696;2023-05-10T11:42:59;17.80;;;15.05;;
49710;SDS011;35602;44.534;18.696;2023-05-10T11:48:00;17.67;;;15.23;;
49710;SDS011;35602;44.534;18.696;2023-05-10T11:53:01;18.25;;;15.13;;
49710;SDS011;35602;44.534;18.696;2023-05-10T11:58:03;19.35;;;14.65;;
49710;SDS011;35602;44.534;18.696;2023-05-10T12:03:05;19.85;;;15.23;;
49710;SDS011;35602;44.534;18.696;2023-05-10T12:08:15;21.48;;;14.73;;
49710;SDS011;35602;44.534;18.696;2023-05-10T12:13:21;18.75;;;14.95;;
49710;SDS011;35602;44.534;18.696;2023-05-10T12:18:22;18.02;;;14.63;;
49710;SDS011;35602;44.534;18.696;2023-05-10T12:23:24;17.77;;;14.73;;
49710;SDS011;35602;44.534;18.696;2023-05-10T12:28:29;16.85;;;14.32;;
49710;SDS011;35602;44.534;18.696;2023-05-10T12:33:37;17.40;;;14.60;;
49710;SDS011;35602;44.534;18.696;2023-05-10T12:38:45;21.23;;;14.57;;
49710;SDS011;35602;44.534;18.696;2023-05-10T12:43:48;18.42;;;15.15;;
49710;SDS011;35602;44.534;18.696;2023-05-10T12:48:49;18.30;;;13.55;;
49710;SDS011;35602;44.534;18.696;2023-05-10T12:53:54;18.83;;;14.87;;
49710;SDS011;35602;44.534;18.696;2023-05-10T12:58:55;19.37;;;14.48;;
49710;SDS011;35602;44.534;18.696;2023-05-10T13:03:56;19.80;;;14.65;;
49710;SDS011;35602;44.534;18.696;2023-05-10T13:08:57;17.25;;;14.07;;
49710;SDS011;35602;44.534;18.696;2023-05-10T13:13:59;19.25;;;15.15;;
49710;SDS011;35602;44.534;18.696;2023-05-10T13:19:00;20.83;;;14.73;;
49710;SDS011;35602;44.534;18.696;2023-05-10T13:24:01;19.30;;;15.05;;
49710;SDS011;35602;44.534;18.696;2023-05-10T13:29:02;19.70;;;15.90;;
49710;SDS011;35602;44.534;18.696;2023-05-10T13:34:04;19.92;;;14.80;;
49710;SDS011;35602;44.534;18.696;2023-05-10T13:39:06;17.37;;;14.43;;
49710;SDS011;35602;44.534;18.696;2023-05-10T13:44:07;20.05;;;15.45;;
49710;SDS011;35602;44.534;18.696;2023-05-10T13:49:10;18.27;;;14.63;;
49710;SDS011;35602;44.534;18.696;2023-05-10T13:54:11;20.25;;;15.35;;
49710;SDS011;35602;44.534;18.696;2023-05-10T13:59:12;21.77;;;15.70;;
49710;SDS011;35602;44.534;18.696;2023-05-10T14:04:14;20.08;;;16.00;;
49710;SDS011;35602;44.534;18.696;2023-05-10T14:09:15;21.27;;;14.48;;
49710;SDS011;35602;44.534;18.696;2023-05-10T14:14:18;19.12;;;15.52;;
49710;SDS011;35602;44.534;18.696;2023-05-10T14:19:20;19.17;;;15.30;;
49710;SDS011;35602;44.534;18.696;2023-05-10T14:24:20;16.92;;;14.18;;
49710;SDS011;35602;44.534;18.696;2023-05-10T14:29:21;17.60;;;14.65;;
49710;SDS011;35602;44.534;18.696;2023-05-10T14:34:22;20.48;;;16.05;;
49710;SDS011;35602;44.534;18.696;2023-05-10T14:39:23;19.30;;;15.10;;
49710;SDS011;35602;44.534;18.696;2023-05-10T14:44:24;18.75;;;14.05;;
49710;SDS011;35602;44.534;18.696;2023-05-10T14:49:25;17.85;;;14.50;;
49710;SDS011;35602;44.534;18.696;2023-05-10T14:54:26;18.90;;;14.15;;
49710;SDS011;35602;44.534;18.696;2023-05-10T14:59:27;17.90;;;14.25;;
49710;SDS011;35602;44.534;18.696;2023-05-10T15:04:28;18.25;;;14.45;;
49710;SDS011;35602;44.534;18.696;2023-05-10T15:09:32;16.67;;;13.77;;
49710;SDS011;35602;44.534;18.696;2023-05-10T15:14:33;16.73;;;14.43;;
49710;SDS011;35602;44.534;18.696;2023-05-10T15:19:35;16.75;;;13.95;;
49710;SDS011;35602;44.534;18.696;2023-05-10T15:24:37;17.90;;;14.75;;
49710;SDS011;35602;44.534;18.696;2023-05-10T15:29:37;18.48;;;14.55;;
49710;SDS011;35602;44.534;18.696;2023-05-10T15:34:38;17.30;;;14.00;;
49710;SDS011;35602;44.534;18.696;2023-05-10T15:39:39;16.95;;;14.90;;
49710;SDS011;35602;44.534;18.696;2023-05-10T15:44:40;18.00;;;13.90;;
49710;SDS011;35602;44.534;18.696;2023-05-10T15:49:41;16.77;;;13.77;;
49710;SDS011;35602;44.534;18.696;2023-05-10T15:54:42;17.35;;;14.48;;
49710;SDS011;35602;44.534;18.696;2023-05-10T15:59:43;17.50;;;14.43;;
49710;SDS011;35602;44.534;18.696;2023-05-10T16:04:44;17.05;;;14.85;;
49710;SDS011;35602;44.534;18.696;2023-05-10T16:09:45;16.70;;;13.20;;
49710;SDS011;35602;44.534;18.696;2023-05-10T16:14:46;17.30;;;13.45;;
49710;SDS011;35602;44.534;18.696;2023-05-10T16:19:47;15.43;;;13.73;;
49710;SDS011;35602;44.534;18.696;2023-05-10T16:24:48;17.60;;;13.93;;
49710;SDS011;35602;44.534;18.696;2023-05-10T16:29:52;16.55;;;14.18;;
49710;SDS011;35602;44.534;18.696;2023-05-10T16:34:55;16.75;;;13.95;;
49710;SDS011;35602;44.534;18.696;2023-05-10T16:39:55;17.77;;;14.50;;
49710;SDS011;35602;44.534;18.696;2023-05-10T16:44:56;19.12;;;14.52;;
49710;SDS011;35602;44.534;18.696;2023-05-10T16:49:57;18.20;;;14.85;;
49710;SDS011;35602;44.534;18.696;2023-05-10T16:54:58;16.73;;;14.05;;
49710;SDS011;35602;44.534;18.696;2023-05-10T16:59:59;17.65;;;14.43;;
49710;SDS011;35602;44.534;18.696;2023-05-10T17:05:00;17.52;;;15.02;;
49710;SDS011;35602;44.534;18.696;2023-05-10T17:10:01;17.58;;;15.23;;
49710;SDS011;35602;44.534;18.696;2023-05-10T17:15:04;19.58;;;14.55;;
49710;SDS011;35602;44.534;18.696;2023-05-10T17:20:06;17.02;;;14.32;;
49710;SDS011;35602;44.534;18.696;2023-05-10T17:25:07;17.55;;;14.05;;
49710;SDS011;35602;44.534;18.696;2023-05-10T17:30:10;16.92;;;14.00;;
49710;SDS011;35602;44.534;18.696;2023-05-10T17:35:12;18.92;;;14.52;;
49710;SDS011;35602;44.534;18.696;2023-05-10T17:40:15;17.65;;;14.57;;
49710;SDS011;35602;44.534;18.696;2023-05-10T17:45:16;19.23;;;14.25;;
49710;SDS011;35602;44.534;18.696;2023-05-10T17:50:17;17.65;;;15.23;;
49710;SDS011;35602;44.534;18.696;2023-05-10T17:55:17;17.20;;;14.55;;
49710;SDS011;35602;44.534;18.696;2023-05-10T18:00:21;19.73;;;15.73;;
49710;SDS011;35602;44.534;18.696;2023-05-10T18:05:22;18.17;;;14.63;;
49710;SDS011;35602;44.534;18.696;2023-05-10T18:10:23;18.70;;;14.93;;
49710;SDS011;35602;44.534;18.696;2023-05-10T18:15:25;18.17;;;14.65;;
49710;SDS011;35602;44.534;18.696;2023-05-10T18:20:27;17.20;;;14.73;;
49710;SDS011;35602;44.534;18.696;2023-05-10T18:25:28;17.00;;;14.50;;
49710;SDS011;35602;44.534;18.696;2023-05-10T18:30:29;20.33;;;15.43;;
49710;SDS011;35602;44.534;18.696;2023-05-10T18:35:30;17.83;;;14.75;;
49710;SDS011;35602;44.534;18.696;2023-05-10T18:40:30;19.27;;;15.82;;
49710;SDS011;35602;44.534;18.696;2023-05-10T18:45:31;17.87;;;15.50;;
49710;SDS011;35602;44.534;18.696;2023-05-10T18:50:32;18.27;;;15.13;;
49710;SDS011;35602;44.534;18.696;2023-05-10T18:55:33;18.33;;;15.68;;
49710;SDS011;35602;44.534;18.696;2023-05-10T19:00:34;17.52;;;14.38;;
49710;SDS011;35602;44.534;18.696;2023-05-10T19:05:35;18.42;;;15.52;;
49710;SDS011;35602;44.534;18.696;2023-05-10T19:10:35;18.45;;;15.68;;
49710;SDS011;35602;44.534;18.696;2023-05-10T19:15:36;21.30;;;15.98;;
49710;SDS011;35602;44.534;18.696;2023-05-10T19:20:37;20.23;;;16.00;;
49710;SDS011;35602;44.534;18.696;2023-05-10T19:25:38;17.30;;;15.45;;
49710;SDS011;35602;44.534;18.696;2023-05-10T19:30:41;19.77;;;15.30;;
49710;SDS011;35602;44.534;18.696;2023-05-10T19:35:42;17.70;;;14.82;;
49710;SDS011;35602;44.534;18.696;2023-05-10T19:40:42;19.40;;;15.80;;
49710;SDS011;35602;44.534;18.696;2023-05-10T19:45:43;20.85;;;16.33;;
49710;SDS011;35602;44.534;18.696;2023-05-10T19:50:44;19.10;;;15.73;;
49710;SDS011;35602;44.534;18.696;2023-05-10T19:55:45;21.17;;;16.80;;
49710;SDS011;35602;44.534;18.696;2023-05-10T20:00:46;19.98;;;16.20;;
49710;SDS011;35602;44.534;18.696;2023-05-10T20:05:47;18.50;;;15.73;;
49710;SDS011;35602;44.534;18.696;2023-05-10T20:10:49;20.48;;;16.77;;
49710;SDS011;35602;44.534;18.696;2023-05-10T20:15:53;18.17;;;15.98;;
49710;SDS011;35602;44.534;18.696;2023-05-10T20:20:56;19.65;;;16.15;;
49710;SDS011;35602;44.534;18.696;2023-05-10T20:25:58;18.95;;;16.20;;
49710;SDS011;35602;44.534;18.696;2023-05-10T20:30:59;20.37;;;16.65;;
49710;SDS011;35602;44.534;18.696;2023-05-10T20:36:01;18.92;;;16.33;;
49710;SDS011;35602;44.534;18.696;2023-05-10T20:41:05;20.90;;;16.62;;
49710;SDS011;35602;44.534;18.696;2023-05-10T20:46:06;20.33;;;16.30;;
49710;SDS011;35602;44.534;18.696;2023-05-10T20:51:07;20.58;;;16.77;;
49710;SDS011;35602;44.534;18.696;2023-05-10T20:56:08;20.75;;;16.85;;
49710;SDS011;35602;44.534;18.696;2023-05-10T21:01:12;19.83;;;17.15;;
49710;SDS011;35602;44.534;18.696;2023-05-10T21:06:13;19.73;;;17.05;;
49710;SDS011;35602;44.534;18.696;2023-05-10T21:11:13;19.95;;;17.08;;
49710;SDS011;35602;44.534;18.696;2023-05-10T21:16:14;19.67;;;16.50;;
49710;SDS011;35602;44.534;18.696;2023-05-10T21:21:15;19.05;;;16.55;;
49710;SDS011;35602;44.534;18.696;2023-05-10T21:26:16;20.67;;;17.10;;
49710;SDS011;35602;44.534;18.696;2023-05-10T21:31:17;18.83;;;16.52;;
49710;SDS011;35602;44.534;18.696;2023-05-10T21:36:18;19.92;;;16.50;;
49710;SDS011;35602;44.534;18.696;2023-05-10T21:41:19;18.80;;;16.77;;
49710;SDS011;35602;44.534;18.696;2023-05-10T21:46:20;19.83;;;16.75;;
49710;SDS011;35602;44.534;18.696;2023-05-10T21:51:24;18.60;;;16.45;;
49710;SDS011;35602;44.534;18.696;2023-05-10T21:56:25;19.35;;;17.05;;
49710;SDS011;35602;44.534;18.696;2023-05-10T22:01:26;18.55;;;16.52;;
49710;SDS011;35602;44.534;18.696;2023-05-10T22:06:27;18.50;;;16.42;;
49710;SDS011;35602;44.534;18.696;2023-05-10T22:11:28;19.12;;;16.40;;
49710;SDS011;35602;44.534;18.696;2023-05-10T22:16:29;18.10;;;16.05;;
49710;SDS011;35602;44.534;18.696;2023-05-10T22:21:30;19.15;;;15.85;;
49710;SDS011;35602;44.534;18.696;2023-05-10T22:26:31;18.50;;;16.50;;
49710;SDS011;35602;44.534;18.696;2023-05-10T22:31:32;19.08;;;16.70;;
49710;SDS011;35602;44.534;18.696;2023-05-10T22:36:33;17.90;;;16.00;;
49710;SDS011;35602;44.534;18.696;2023-05-10T22:41:33;20.65;;;16.83;;
49710;SDS011;35602;44.534;18.696;2023-05-10T22:46:34;19.25;;;16.52;;
49710;SDS011;35602;44.534;18.696;2023-05-10T22:51:36;18.42;;;16.40;;
49710;SDS011;35602;44.534;18.696;2023-05-10T22:56:37;17.73;;;15.82;;
49710;SDS011;35602;44.534;18.696;2023-05-10T23:01:38;20.23;;;15.27;;
49710;SDS011;35602;44.534;18.696;2023-05-10T23:06:38;17.77;;;15.77;;
49710;SDS011;35602;44.534;18.696;2023-05-10T23:11:39;19.12;;;14.87;;
49710;SDS011;35602;44.534;18.696;2023-05-10T23:16:41;17.33;;;15.45;;
49710;SDS011;35602;44.534;18.696;2023-05-10T23:21:41;18.50;;;15.77;;
49710;SDS011;35602;44.534;18.696;2023-05-10T23:26:42;17.17;;;15.27;;
49710;SDS011;35602;44.534;18.696;2023-05-10T23:31:48;17.83;;;15.55;;
49710;SDS011;35602;44.534;18.696;2023-05-10T23:36:50;18.12;;;15.00;;
49710;SDS011;35602;44.534;18.696;2023-05-10T23:41:51;17.87;;;15.57;;
49710;SDS011;35602;44.534;18.696;2023-05-10T23:46:51;17.87;;;15.93;;
49710;SDS011;35602;44.534;18.696;2023-05-10T23:51:52;16.90;;;14.77;;
49710;SDS011;35602;44.534;18.696;2023-05-10T23:56:53;17.00;;;14.60;;
